Shiprock, NM (87420)

7:03 AM MDT on October 02, 2014 (GMT -0600)
Four Corners Regional | Change Station
CLOSE
Current Station
Airport
Location: Farmington,
Elevation: 5502 ft
Nearby Weather Stations
Active Advisory: Special Statement

Elev 5502 ft 36.74 °N, 108.23 °W | Updated 10 minutes ago

Clear
Clear
41 °F
Feels Like 39 °F
N
4
Wind Variable Wind from North

Today
High -- | Low -- °F
--% Chance of Precip.
Yesterday
High -- | Low -- °F
Precip. -- in
7:10 AM 6:56 PM
First Quarter, 58% visible
Pressure 30.12 in
Visibility 10.0 miles
Clouds Clear
Windchill 39 °F
Dew Point 30 °F
Humidity 65%
Rainfall 0.00 in
Snow Depth 0 in , 0 in , 0 in
UV 0 out of 12
Pollen 5.10 out of 12
Air Quality Not available.
Flu Activity Not available.
METAR KFMN 021253Z 35003KT 10SM CLR 05/M01 A3018 RMK AO2 SLP197 T00501011

More Conditions Fewer Conditions

Pressure 30.12 in
Visibility 10.0 miles
Clouds Clear
Windchill 39 °F
Dew Point 30 °F
Humidity 65%
Rainfall 0.00 in
Snow Depth 0 in , 0 in , 0 in
UV 0 out of 12
Pollen 5.10 out of 12
Air Quality Not available.
Flu Activity Not available.
METAR KFMN 021253Z 35003KT 10SM CLR 05/M01 A3018 RMK AO2 SLP197 T00501011

More Conditions Fewer Conditions

10-Day Weather Forecast

Almanac

Astronomy

Oct. 02, 2014 Rise Set
Actual Time 7:10 AM MDT 6:56 PM MDT
Civil Twilight 6:44 AM MDT 7:21 PM MDT
Nautical Twilight 6:14 AM MDT 7:51 PM MDT
Astronomical Twilight 5:44 AM MDT 8:21 PM MDT
Moon 2:56 PM MDT 12:39 AM MDT
Length of Visible Light 12h 37m
Length of Day
11h 45m
Tomorrow will be 2m 18s shorter.
First Quarter, 58% of the Moon is Illuminated
Today
First Quarter
Oct 8
Full
Oct 15
Last Quarter
Oct 23
New
Oct 30
First Quarter

Today's Extremes

State Highs State Lows

Community

WunderPhotos

Upload Photos

1,758,229 photos uploaded!

WunderBlogs® & News

By Dr. Jeff Masters
Director of Meteorology, Weather Underground
By Kari Strenfel
Meteorologist, Weather Underground
By Christopher C. Burt
Weather Historian, Weather Underground
October 2, 2014
October 2, 2014
October 2, 2014

Nearby

Snow Depth

Station Depth Elevation
Frisco Divide 0 in 8000 ft
Santa Fe 0 in 11445 ft
Rice Park 0 in 8460 ft
Chamita 1 in 8400 ft
Sierra Blanca 0 in 10280 ft

Earthquake Activity

City Distance Mag. Time & Date
No recent earthquake activity has been reported nearby.
Minimum magnitude displayed is 2.5.

Coastal Water Temperatures

Place Temperature
No Stations Reporting

Nearby Weather Stations